createdAt,value
2022-12-17T00:00:23.121Z,1015.75
2022-12-17T00:01:19.827Z,1015.77
2022-12-17T00:02:18.859Z,1015.76
2022-12-17T00:03:18.900Z,1015.73
2022-12-17T00:04:18.969Z,1015.79
2022-12-17T00:05:18.766Z,1015.79
2022-12-17T00:06:18.760Z,1015.82
2022-12-17T00:07:18.775Z,1015.87
2022-12-17T00:08:18.769Z,1015.87
2022-12-17T00:09:18.726Z,1015.85
2022-12-17T00:10:18.780Z,1015.87
2022-12-17T00:11:18.726Z,1015.93
2022-12-17T00:12:18.715Z,1015.91
2022-12-17T00:13:18.713Z,1015.91
2022-12-17T00:14:18.676Z,1015.95
2022-12-17T00:15:18.748Z,1015.92
2022-12-17T00:16:18.707Z,1015.96
2022-12-17T00:17:18.648Z,1015.98
2022-12-17T00:18:18.633Z,1016.02
2022-12-17T00:19:18.620Z,1016.01
2022-12-17T00:20:18.644Z,1016.00
2022-12-17T00:21:18.625Z,1016.01
2022-12-17T00:22:18.655Z,1016.04
2022-12-17T00:23:18.607Z,1016.06
2022-12-17T00:24:18.615Z,1016.08
2022-12-17T00:25:18.586Z,1016.08
2022-12-17T00:26:18.552Z,1016.14
2022-12-17T00:27:18.576Z,1016.15
2022-12-17T00:28:18.522Z,1016.12
2022-12-17T00:29:18.572Z,1016.19
2022-12-17T00:30:18.539Z,1016.16
2022-12-17T00:31:18.620Z,1016.22
2022-12-17T00:32:18.492Z,1016.22
2022-12-17T00:33:18.471Z,1016.25
2022-12-17T00:34:18.461Z,1016.28
2022-12-17T00:35:18.470Z,1016.24
2022-12-17T00:36:18.463Z,1016.22
2022-12-17T00:37:21.669Z,1016.29
2022-12-17T00:38:18.428Z,1016.23
2022-12-17T00:39:18.408Z,1016.25
2022-12-17T00:40:18.448Z,1016.25
2022-12-17T00:41:18.489Z,1016.26
2022-12-17T00:42:18.379Z,1016.28
2022-12-17T00:43:18.390Z,1016.27
2022-12-17T00:44:18.426Z,1016.31
2022-12-17T00:45:18.365Z,1016.33
2022-12-17T00:46:18.428Z,1016.31
2022-12-17T00:47:18.377Z,1016.29
2022-12-17T00:48:18.348Z,1016.29
2022-12-17T00:49:18.306Z,1016.28
2022-12-17T00:50:18.355Z,1016.32
2022-12-17T00:51:18.317Z,1016.31
2022-12-17T00:52:18.289Z,1016.33
2022-12-17T00:53:18.267Z,1016.32
2022-12-17T00:54:18.257Z,1016.34
2022-12-17T00:55:18.256Z,1016.29
2022-12-17T00:56:18.316Z,1016.34
2022-12-17T00:57:18.233Z,1016.33
2022-12-17T00:58:18.265Z,1016.37
2022-12-17T00:59:18.196Z,1016.34
2022-12-17T01:00:18.195Z,1016.36
2022-12-17T01:01:18.419Z,1016.35
2022-12-17T01:02:18.249Z,1016.36
2022-12-17T01:03:18.181Z,1016.33
2022-12-17T01:04:18.160Z,1016.37
2022-12-17T01:05:18.135Z,1016.35
2022-12-17T01:06:18.125Z,1016.40
2022-12-17T01:07:18.173Z,1016.39
2022-12-17T01:08:18.115Z,1016.41
2022-12-17T01:09:18.098Z,1016.36
2022-12-17T01:10:18.107Z,1016.40
2022-12-17T01:11:18.133Z,1016.40
2022-12-17T01:12:18.063Z,1016.40
2022-12-17T01:13:18.052Z,1016.39
2022-12-17T01:14:18.075Z,1016.41
2022-12-17T01:15:18.063Z,1016.41
2022-12-17T01:16:18.116Z,1016.38
2022-12-17T01:17:18.074Z,1016.43
2022-12-17T01:18:18.002Z,1016.41
2022-12-17T01:19:18.041Z,1016.40
2022-12-17T01:20:18.000Z,1016.39
2022-12-17T01:21:17.965Z,1016.37
2022-12-17T01:22:17.960Z,1016.38
2022-12-17T01:23:18.052Z,1016.34
2022-12-17T01:24:17.990Z,1016.32
2022-12-17T01:25:17.983Z,1016.33
2022-12-17T01:26:17.926Z,1016.34
2022-12-17T01:27:17.930Z,1016.34
2022-12-17T01:28:17.985Z,1016.32
2022-12-17T01:29:17.888Z,1016.36
2022-12-17T01:30:21.943Z,1016.42
2022-12-17T01:31:19.845Z,1016.40
2022-12-17T01:32:22.291Z,1016.39
2022-12-17T01:33:20.791Z,1016.46
2022-12-17T01:34:19.822Z,1016.47
2022-12-17T01:35:23.004Z,1016.44
2022-12-17T01:36:22.193Z,1016.45
2022-12-17T01:37:21.788Z,1016.47
2022-12-17T01:38:24.711Z,1016.50
2022-12-17T01:39:20.359Z,1016.51
2022-12-17T01:40:21.043Z,1016.53
2022-12-17T01:41:20.189Z,1016.57
2022-12-17T01:42:22.337Z,1016.56
2022-12-17T01:43:21.483Z,1016.56
2022-12-17T01:44:23.735Z,1016.56
2022-12-17T01:45:22.130Z,1016.56
2022-12-17T01:46:19.237Z,1016.60
2022-12-17T01:47:21.821Z,1016.58
2022-12-17T01:48:21.824Z,1016.64
2022-12-17T01:49:25.860Z,1016.60
2022-12-17T01:50:24.085Z,1016.67
2022-12-17T01:51:22.246Z,1016.63
2022-12-17T01:52:25.984Z,1016.66
2022-12-17T01:53:19.018Z,1016.61
2022-12-17T01:54:21.149Z,1016.67
2022-12-17T01:55:22.539Z,1016.65
2022-12-17T01:56:22.289Z,1016.60
2022-12-17T01:57:20.482Z,1016.62
2022-12-17T01:58:22.567Z,1016.67
2022-12-17T01:59:21.194Z,1016.65
2022-12-17T02:00:20.035Z,1016.66
2022-12-17T02:01:41.355Z,1016.64
2022-12-17T02:02:22.609Z,1016.64
2022-12-17T02:03:20.575Z,1016.69
2022-12-17T02:04:20.498Z,1016.66
2022-12-17T02:05:18.949Z,1016.64
2022-12-17T02:06:21.450Z,1016.64
2022-12-17T02:07:22.149Z,1016.63
2022-12-17T02:08:22.378Z,1016.70
2022-12-17T02:09:19.097Z,1016.71
2022-12-17T02:10:20.695Z,1016.70
2022-12-17T02:12:29.944Z,1016.70
2022-12-17T02:13:30.906Z,1016.66
2022-12-17T02:14:31.443Z,1016.66
2022-12-17T02:15:30.330Z,1016.71
2022-12-17T02:16:31.086Z,1016.69
2022-12-17T02:17:30.429Z,1016.68
2022-12-17T02:18:31.309Z,1016.70
2022-12-17T02:19:30.051Z,1016.78
2022-12-17T02:20:31.750Z,1016.77
2022-12-17T02:21:31.972Z,1016.81
2022-12-17T02:22:33.166Z,1016.83
2022-12-17T02:23:32.929Z,1016.87
2022-12-17T02:24:33.381Z,1016.81
2022-12-17T02:25:30.635Z,1016.86
2022-12-17T02:26:31.733Z,1016.84
2022-12-17T02:27:32.682Z,1016.86
2022-12-17T02:28:28.506Z,1016.83
2022-12-17T02:29:33.691Z,1016.80
2022-12-17T02:30:31.329Z,1016.80
2022-12-17T02:31:29.776Z,1016.79
2022-12-17T02:32:34.359Z,1016.83
2022-12-17T02:33:33.734Z,1016.82
2022-12-17T02:34:32.145Z,1016.82
2022-12-17T02:35:32.220Z,1016.87
2022-12-17T02:36:32.756Z,1016.86
2022-12-17T02:37:30.089Z,1016.87
2022-12-17T02:38:34.321Z,1016.93
2022-12-17T02:39:30.671Z,1016.92
2022-12-17T02:40:32.071Z,1016.85
2022-12-17T02:41:29.749Z,1016.81
2022-12-17T02:42:32.897Z,1016.84
2022-12-17T02:43:34.360Z,1016.77
2022-12-17T02:44:29.544Z,1016.80
2022-12-17T02:45:32.735Z,1016.80
2022-12-17T02:46:30.492Z,1016.85
2022-12-17T02:47:38.509Z,1016.88
2022-12-17T02:48:31.967Z,1016.81
2022-12-17T02:49:28.145Z,1016.87
2022-12-17T02:50:31.198Z,1016.83
2022-12-17T02:51:31.042Z,1016.83
2022-12-17T02:52:35.041Z,1016.83
2022-12-17T02:53:34.501Z,1016.87
2022-12-17T02:54:33.234Z,1016.88
2022-12-17T02:55:35.973Z,1016.84
2022-12-17T02:56:32.138Z,1016.89
2022-12-17T02:57:32.279Z,1016.86
2022-12-17T02:58:31.434Z,1016.88
2022-12-17T02:59:34.753Z,1016.88
2022-12-17T03:00:35.432Z,1016.90
2022-12-17T03:01:32.197Z,1016.88
2022-12-17T03:02:35.368Z,1016.87
2022-12-17T03:03:30.412Z,1016.86
2022-12-17T03:04:30.083Z,1016.91
2022-12-17T03:05:46.350Z,1016.97
2022-12-17T03:06:31.299Z,1016.96
2022-12-17T03:07:32.954Z,1016.95
2022-12-17T03:08:32.103Z,1016.99
2022-12-17T03:09:30.776Z,1017.00
2022-12-17T03:10:29.318Z,1017.02
2022-12-17T03:11:34.440Z,1017.08
2022-12-17T03:12:33.594Z,1017.08
2022-12-17T03:13:35.043Z,1017.02
2022-12-17T03:14:30.581Z,1017.06
2022-12-17T03:15:32.052Z,1017.00
2022-12-17T03:16:35.795Z,1017.01
2022-12-17T03:17:31.741Z,1017.04
2022-12-17T03:18:31.691Z,1017.03
2022-12-17T03:19:32.822Z,1017.02
2022-12-17T03:20:35.694Z,1017.04
2022-12-17T03:21:30.851Z,1017.03
2022-12-17T03:22:30.623Z,1017.00
2022-12-17T03:23:31.390Z,1017.03
2022-12-17T03:24:30.091Z,1017.06
2022-12-17T03:25:30.592Z,1017.04
2022-12-17T03:26:34.275Z,1017.06
2022-12-17T03:27:31.149Z,1017.05
2022-12-17T03:28:32.883Z,1017.09
2022-12-17T03:29:31.073Z,1017.09
2022-12-17T03:30:30.165Z,1017.11
2022-12-17T03:31:31.118Z,1017.13
2022-12-17T03:32:34.653Z,1017.15
2022-12-17T03:33:29.382Z,1017.17
2022-12-17T03:34:29.114Z,1017.16
2022-12-17T03:35:30.484Z,1017.16
2022-12-17T03:36:33.219Z,1017.13
2022-12-17T03:37:31.023Z,1017.18
2022-12-17T03:38:29.650Z,1017.17
2022-12-17T03:39:29.145Z,1017.24
2022-12-17T03:40:32.636Z,1017.22
2022-12-17T03:41:30.794Z,1017.25
2022-12-17T03:42:29.028Z,1017.24
2022-12-17T03:43:29.181Z,1017.24
2022-12-17T03:44:32.920Z,1017.24
2022-12-17T03:45:29.556Z,1017.28
2022-12-17T03:46:33.700Z,1017.24
2022-12-17T03:47:31.341Z,1017.25
2022-12-17T03:48:28.656Z,1017.29
2022-12-17T03:49:33.638Z,1017.26
2022-12-17T03:50:29.363Z,1017.31
2022-12-17T03:51:29.447Z,1017.31
2022-12-17T03:52:31.685Z,1017.32
2022-12-17T03:53:30.963Z,1017.31
2022-12-17T03:54:31.705Z,1017.32
2022-12-17T03:55:31.756Z,1017.28
2022-12-17T03:56:30.948Z,1017.26
2022-12-17T03:57:30.660Z,1017.24
2022-12-17T03:59:31.828Z,1017.25
2022-12-17T04:00:31.732Z,1017.23
2022-12-17T04:01:31.835Z,1017.13
2022-12-17T04:02:32.010Z,1017.12
2022-12-17T04:03:31.737Z,1017.15
2022-12-17T04:04:31.697Z,1017.16
2022-12-17T04:05:31.717Z,1017.14
2022-12-17T04:06:31.678Z,1017.22
2022-12-17T04:07:31.657Z,1017.13
2022-12-17T04:08:31.659Z,1017.20
2022-12-17T04:09:31.673Z,1017.21
2022-12-17T04:10:31.639Z,1017.22
2022-12-17T04:11:31.608Z,1017.24
2022-12-17T04:12:31.616Z,1017.27
2022-12-17T04:13:35.823Z,1017.22
2022-12-17T04:14:32.645Z,1017.27
2022-12-17T04:15:31.664Z,1017.27
2022-12-17T04:16:31.568Z,1017.27
2022-12-17T04:17:31.553Z,1017.25
2022-12-17T04:18:31.558Z,1017.30
2022-12-17T04:19:31.585Z,1017.29
2022-12-17T04:20:32.016Z,1017.27
2022-12-17T04:21:31.520Z,1017.30
2022-12-17T04:22:31.655Z,1017.32
2022-12-17T04:23:31.491Z,1017.29
2022-12-17T04:24:31.484Z,1017.34
2022-12-17T04:25:31.464Z,1017.35
2022-12-17T04:26:31.476Z,1017.36
2022-12-17T04:27:31.485Z,1017.38
2022-12-17T04:28:31.449Z,1017.39
2022-12-17T04:29:31.425Z,1017.47
2022-12-17T04:30:31.424Z,1017.46
2022-12-17T04:31:31.463Z,1017.45
2022-12-17T04:32:35.250Z,1017.49
2022-12-17T04:33:31.398Z,1017.47
2022-12-17T04:34:31.383Z,1017.49
2022-12-17T04:35:31.371Z,1017.49
2022-12-17T04:36:31.394Z,1017.55
2022-12-17T04:37:31.413Z,1017.53
2022-12-17T04:38:31.354Z,1017.58
2022-12-17T04:39:31.346Z,1017.56
2022-12-17T04:40:31.333Z,1017.57
2022-12-17T04:41:31.328Z,1017.61
2022-12-17T04:42:31.301Z,1017.63
2022-12-17T04:43:31.343Z,1017.62
2022-12-17T04:44:31.292Z,1017.67
2022-12-17T04:45:31.263Z,1017.69
2022-12-17T04:46:31.324Z,1017.69
2022-12-17T04:47:31.251Z,1017.75
2022-12-17T04:48:31.290Z,1017.75
2022-12-17T04:49:31.289Z,1017.77
2022-12-17T04:50:31.731Z,1017.75
2022-12-17T04:51:31.211Z,1017.77
2022-12-17T04:52:31.198Z,1017.80
2022-12-17T04:53:31.190Z,1017.79
2022-12-17T04:54:31.180Z,1017.80
2022-12-17T04:55:31.235Z,1017.80
2022-12-17T04:56:31.158Z,1017.77
2022-12-17T04:57:31.150Z,1017.74
2022-12-17T04:58:31.132Z,1017.75
2022-12-17T04:59:31.129Z,1017.78
2022-12-17T05:00:31.159Z,1017.77
2022-12-17T05:01:31.215Z,1017.73
2022-12-17T05:02:31.197Z,1017.73
2022-12-17T05:03:31.278Z,1017.74
2022-12-17T05:04:31.069Z,1017.76
2022-12-17T05:05:31.059Z,1017.75
2022-12-17T05:06:31.138Z,1017.78
2022-12-17T05:07:31.059Z,1017.74
2022-12-17T05:08:31.098Z,1017.76
2022-12-17T05:09:31.026Z,1017.74
2022-12-17T05:10:31.017Z,1017.75
2022-12-17T05:11:31.007Z,1017.78
2022-12-17T05:12:30.989Z,1017.77
2022-12-17T05:13:30.986Z,1017.73
2022-12-17T05:14:31.042Z,1017.78
2022-12-17T05:15:31.001Z,1017.70
2022-12-17T05:16:31.035Z,1017.72
2022-12-17T05:17:30.945Z,1017.70
2022-12-17T05:18:30.976Z,1017.68
2022-12-17T05:19:30.926Z,1017.69
2022-12-17T05:20:30.907Z,1017.68
2022-12-17T05:21:33.508Z,1017.72
2022-12-17T05:22:30.885Z,1017.73
2022-12-17T05:23:30.945Z,1017.74
2022-12-17T05:24:30.875Z,1017.77
2022-12-17T05:25:30.889Z,1017.75
2022-12-17T05:26:30.862Z,1017.77
2022-12-17T05:27:30.843Z,1017.79
2022-12-17T05:28:30.853Z,1017.79
2022-12-17T05:29:30.853Z,1017.80
2022-12-17T05:30:30.806Z,1017.79
2022-12-17T05:31:30.859Z,1017.78
2022-12-17T05:32:30.788Z,1017.79
2022-12-17T05:33:30.793Z,1017.78
2022-12-17T05:34:30.763Z,1017.84
2022-12-17T05:35:30.803Z,1017.80
2022-12-17T05:36:30.744Z,1017.84
2022-12-17T05:37:30.734Z,1017.88
2022-12-17T05:38:30.731Z,1017.89
2022-12-17T05:39:30.755Z,1017.91
2022-12-17T05:40:30.694Z,1017.88
2022-12-17T05:41:30.742Z,1017.96
2022-12-17T05:42:30.676Z,1017.94
2022-12-17T05:43:30.672Z,1017.97
2022-12-17T05:44:30.653Z,1017.93
2022-12-17T05:45:30.660Z,1017.94
2022-12-17T05:46:30.754Z,1017.90
2022-12-17T05:47:30.640Z,1017.94
2022-12-17T05:48:30.618Z,1017.96
2022-12-17T05:49:30.612Z,1017.93
2022-12-17T05:50:30.665Z,1017.94
2022-12-17T05:51:34.497Z,1017.93
2022-12-17T05:52:31.578Z,1017.98
2022-12-17T05:53:30.575Z,1017.99
2022-12-17T05:54:30.562Z,1017.91
2022-12-17T05:55:30.590Z,1017.98
2022-12-17T05:56:30.779Z,1017.95
2022-12-17T05:57:30.540Z,1018.02
2022-12-17T05:58:30.517Z,1017.98
2022-12-17T05:59:30.547Z,1017.98
2022-12-17T06:00:30.498Z,1017.99
2022-12-17T06:01:33.756Z,1018.00
2022-12-17T06:02:30.518Z,1017.98
2022-12-17T06:03:30.589Z,1017.95
2022-12-17T06:04:30.447Z,1017.97
2022-12-17T06:05:30.447Z,1017.96
2022-12-17T06:06:30.426Z,1018.02
2022-12-17T06:07:30.476Z,1017.98
2022-12-17T06:08:30.435Z,1018.01
2022-12-17T06:09:30.410Z,1018.03
2022-12-17T06:10:30.388Z,1018.05
2022-12-17T06:11:30.413Z,1018.07
2022-12-17T06:12:30.398Z,1018.12
2022-12-17T06:13:30.416Z,1018.09
2022-12-17T06:14:30.349Z,1018.10
2022-12-17T06:15:30.350Z,1018.10
2022-12-17T06:16:30.348Z,1018.11
2022-12-17T06:17:30.346Z,1018.14
2022-12-17T06:18:30.306Z,1018.14
2022-12-17T06:19:30.624Z,1018.15
2022-12-17T06:20:30.294Z,1018.23
2022-12-17T06:21:30.286Z,1018.25
2022-12-17T06:22:30.272Z,1018.25
2022-12-17T06:23:30.294Z,1018.28
2022-12-17T06:24:30.277Z,1018.25
2022-12-17T06:25:30.284Z,1018.27
2022-12-17T06:26:30.224Z,1018.29
2022-12-17T06:27:30.244Z,1018.34
2022-12-17T06:28:30.204Z,1018.28
2022-12-17T06:29:30.204Z,1018.29
2022-12-17T06:30:30.271Z,1018.31
2022-12-17T06:31:30.235Z,1018.27
2022-12-17T06:32:30.163Z,1018.28
2022-12-17T06:33:30.161Z,1018.31
2022-12-17T06:34:30.145Z,1018.28
2022-12-17T06:35:30.143Z,1018.25
2022-12-17T06:36:30.161Z,1018.30
2022-12-17T06:37:30.121Z,1018.30
2022-12-17T06:38:30.101Z,1018.34
2022-12-17T06:39:30.102Z,1018.35
2022-12-17T06:40:30.081Z,1018.36
2022-12-17T06:41:30.132Z,1018.35
2022-12-17T06:42:30.061Z,1018.39
2022-12-17T06:43:30.089Z,1018.39
2022-12-17T06:44:30.037Z,1018.39
2022-12-17T06:45:30.048Z,1018.41
2022-12-17T06:46:30.138Z,1018.42
2022-12-17T06:47:30.049Z,1018.41
2022-12-17T06:48:30.020Z,1018.44
2022-12-17T06:49:29.999Z,1018.42
2022-12-17T06:50:29.980Z,1018.40
2022-12-17T06:51:29.979Z,1018.44
2022-12-17T06:52:29.962Z,1018.43
2022-12-17T06:53:29.999Z,1018.42
2022-12-17T06:54:29.938Z,1018.41
2022-12-17T06:55:30.014Z,1018.37
2022-12-17T06:56:29.939Z,1018.42
2022-12-17T06:57:29.909Z,1018.43
2022-12-17T06:58:29.974Z,1018.42
2022-12-17T06:59:29.898Z,1018.44
2022-12-17T07:00:30.030Z,1018.48
2022-12-17T07:01:29.978Z,1018.49
2022-12-17T07:02:30.037Z,1018.46
2022-12-17T07:03:29.947Z,1018.49
2022-12-17T07:04:29.893Z,1018.54
2022-12-17T07:05:29.826Z,1018.53
2022-12-17T07:06:29.820Z,1018.60
2022-12-17T07:07:29.806Z,1018.52
2022-12-17T07:08:29.836Z,1018.61
2022-12-17T07:09:29.847Z,1018.60
2022-12-17T07:10:29.817Z,1018.61
2022-12-17T07:11:29.832Z,1018.62
2022-12-17T07:12:29.754Z,1018.67
2022-12-17T07:13:29.776Z,1018.61
2022-12-17T07:14:29.736Z,1018.65
2022-12-17T07:15:29.788Z,1018.63
2022-12-17T07:16:29.745Z,1018.65
2022-12-17T07:17:29.711Z,1018.67
2022-12-17T07:18:29.697Z,1018.70
2022-12-17T07:19:29.691Z,1018.69
2022-12-17T07:20:29.736Z,1018.68
2022-12-17T07:21:29.669Z,1018.72
2022-12-17T07:22:29.645Z,1018.70
2022-12-17T07:23:29.633Z,1018.77
2022-12-17T07:24:29.632Z,1018.75
2022-12-17T07:25:29.624Z,1018.76
2022-12-17T07:26:29.653Z,1018.74
2022-12-17T07:27:29.606Z,1018.75
2022-12-17T07:28:29.583Z,1018.76
2022-12-17T07:29:29.583Z,1018.73
2022-12-17T07:30:29.613Z,1018.76
2022-12-17T07:31:29.585Z,1018.72
2022-12-17T07:32:29.551Z,1018.76
2022-12-17T07:33:29.539Z,1018.73
2022-12-17T07:34:29.535Z,1018.76
2022-12-17T07:35:29.529Z,1018.80
2022-12-17T07:36:29.551Z,1018.79
2022-12-17T07:37:29.502Z,1018.85
2022-12-17T07:38:29.531Z,1018.83
2022-12-17T07:39:29.479Z,1018.87
2022-12-17T07:40:29.463Z,1018.85
2022-12-17T07:41:29.452Z,1018.86
2022-12-17T07:42:29.446Z,1018.91
2022-12-17T07:43:29.462Z,1018.87
2022-12-17T07:44:29.521Z,1018.92
2022-12-17T07:45:29.438Z,1018.92
2022-12-17T07:46:29.408Z,1018.90
2022-12-17T07:47:29.452Z,1018.95
2022-12-17T07:48:29.382Z,1018.90
2022-12-17T07:49:29.419Z,1018.90
2022-12-17T07:50:29.389Z,1018.94
2022-12-17T07:51:29.350Z,1018.95
2022-12-17T07:52:29.350Z,1018.99
2022-12-17T07:53:29.342Z,1019.02
2022-12-17T07:54:29.326Z,1019.01
2022-12-17T07:55:29.320Z,1019.02
2022-12-17T07:56:29.945Z,1019.03
2022-12-17T07:57:29.339Z,1019.05
2022-12-17T07:58:29.278Z,1019.04
2022-12-17T07:59:29.268Z,1019.09
2022-12-17T08:00:29.295Z,1019.14
2022-12-17T08:01:29.316Z,1019.08
2022-12-17T08:02:29.459Z,1019.10
2022-12-17T08:03:29.302Z,1019.09
2022-12-17T08:04:29.268Z,1019.11
2022-12-17T08:05:29.218Z,1019.15
2022-12-17T08:06:29.236Z,1019.14
2022-12-17T08:07:29.188Z,1019.15
2022-12-17T08:08:29.175Z,1019.25
2022-12-17T08:09:29.166Z,1019.23
2022-12-17T08:10:29.156Z,1019.28
2022-12-17T08:11:29.185Z,1019.22
2022-12-17T08:12:29.124Z,1019.29
2022-12-17T08:13:29.127Z,1019.30
2022-12-17T08:14:29.108Z,1019.30
2022-12-17T08:15:29.118Z,1019.31
2022-12-17T08:16:29.151Z,1019.31
2022-12-17T08:17:29.092Z,1019.33
2022-12-17T08:18:29.064Z,1019.31
2022-12-17T08:19:29.069Z,1019.26
2022-12-17T08:20:29.047Z,1019.32
2022-12-17T08:21:29.135Z,1019.32
2022-12-17T08:22:29.025Z,1019.36
2022-12-17T08:23:29.029Z,1019.39
2022-12-17T08:24:29.023Z,1019.42
2022-12-17T08:25:29.004Z,1019.46
2022-12-17T08:26:28.994Z,1019.43
2022-12-17T08:27:29.063Z,1019.46
2022-12-17T08:29:29.954Z,1019.47
2022-12-17T08:30:28.987Z,1019.46
2022-12-17T08:31:28.943Z,1019.45
2022-12-17T08:32:28.963Z,1019.47
2022-12-17T08:33:28.920Z,1019.47
2022-12-17T08:34:28.913Z,1019.51
2022-12-17T08:35:28.910Z,1019.46
2022-12-17T08:36:28.952Z,1019.52
2022-12-17T08:37:28.894Z,1019.50
2022-12-17T08:38:28.868Z,1019.51
2022-12-17T08:39:28.861Z,1019.55
2022-12-17T08:40:28.841Z,1019.52
2022-12-17T08:41:28.881Z,1019.50
2022-12-17T08:42:29.008Z,1019.50
2022-12-17T08:43:28.819Z,1019.51
2022-12-17T08:44:28.810Z,1019.49
2022-12-17T08:45:28.789Z,1019.53
2022-12-17T08:46:28.921Z,1019.54
2022-12-17T08:47:28.779Z,1019.61
2022-12-17T08:48:28.761Z,1019.55
2022-12-17T08:49:28.800Z,1019.55
2022-12-17T08:50:28.769Z,1019.51
2022-12-17T08:51:28.773Z,1019.59
2022-12-17T08:52:28.717Z,1019.63
2022-12-17T08:53:34.551Z,1019.58
2022-12-17T08:54:29.749Z,1019.64
2022-12-17T08:55:28.814Z,1019.69
2022-12-17T08:56:28.683Z,1019.66
2022-12-17T08:57:32.503Z,1019.67
2022-12-17T08:58:28.677Z,1019.65
2022-12-17T08:59:28.648Z,1019.66
2022-12-17T09:00:28.727Z,1019.70
2022-12-17T09:01:28.871Z,1019.65
2022-12-17T09:02:28.829Z,1019.69
2022-12-17T09:03:28.645Z,1019.67
2022-12-17T09:04:28.626Z,1019.69
2022-12-17T09:05:28.617Z,1019.68
2022-12-17T09:06:28.577Z,1019.66
2022-12-17T09:07:28.595Z,1019.66
2022-12-17T09:08:28.565Z,1019.68
2022-12-17T09:09:28.596Z,1019.67
2022-12-17T09:10:28.538Z,1019.68
2022-12-17T09:11:28.556Z,1019.72
2022-12-17T09:12:28.621Z,1019.72
2022-12-17T09:13:28.504Z,1019.81
2022-12-17T09:14:28.723Z,1019.74
2022-12-17T09:15:28.485Z,1019.79
2022-12-17T09:16:28.539Z,1019.79
2022-12-17T09:17:28.485Z,1019.85
2022-12-17T09:18:28.462Z,1019.86
2022-12-17T09:19:28.455Z,1019.82
2022-12-17T09:20:29.568Z,1019.85
2022-12-17T09:21:28.416Z,1019.84
2022-12-17T09:22:28.414Z,1019.82
2022-12-17T09:23:28.490Z,1019.83
2022-12-17T09:24:28.392Z,1019.86
2022-12-17T09:25:28.384Z,1019.84
2022-12-17T09:26:28.511Z,1019.84
2022-12-17T09:27:28.423Z,1019.83
2022-12-17T09:28:28.404Z,1019.85
2022-12-17T09:29:28.352Z,1019.83
2022-12-17T09:30:28.387Z,1019.84
2022-12-17T09:31:32.323Z,1019.83
2022-12-17T09:32:29.301Z,1019.81
2022-12-17T09:33:28.332Z,1019.84
2022-12-17T09:34:28.292Z,1019.84
2022-12-17T09:35:28.281Z,1019.88
2022-12-17T09:36:28.275Z,1019.89
2022-12-17T09:37:28.275Z,1019.87
2022-12-17T09:38:28.249Z,1019.88
2022-12-17T09:39:28.261Z,1019.90
2022-12-17T09:40:28.232Z,1019.88
2022-12-17T09:41:28.221Z,1019.85
2022-12-17T09:42:28.211Z,1019.86
2022-12-17T09:43:28.189Z,1019.82
2022-12-17T09:44:28.200Z,1019.80
2022-12-17T09:45:28.289Z,1019.81
2022-12-17T09:46:28.252Z,1019.82
2022-12-17T09:47:28.158Z,1019.84
2022-12-17T09:48:32.352Z,1019.87
2022-12-17T09:49:28.128Z,1019.82
2022-12-17T09:50:28.119Z,1019.88
2022-12-17T09:51:28.119Z,1019.90
2022-12-17T09:52:28.140Z,1019.91
2022-12-17T09:53:28.087Z,1019.87
2022-12-17T09:54:28.097Z,1019.92
2022-12-17T09:55:28.073Z,1019.89
2022-12-17T09:56:28.073Z,1019.91
2022-12-17T09:57:28.054Z,1019.89
2022-12-17T09:58:28.086Z,1019.88
2022-12-17T09:59:35.071Z,1019.91
2022-12-17T10:00:28.019Z,1019.96
2022-12-17T10:01:28.060Z,1019.96
2022-12-17T10:02:28.145Z,1019.94
2022-12-17T10:03:28.033Z,1020.00
2022-12-17T10:04:27.999Z,1020.04
2022-12-17T10:05:27.969Z,1020.01
2022-12-17T10:06:27.963Z,1020.06
2022-12-17T10:07:27.939Z,1020.10
2022-12-17T10:08:27.970Z,1020.09
2022-12-17T10:09:27.938Z,1020.07
2022-12-17T10:10:27.911Z,1020.10
2022-12-17T10:11:32.666Z,1020.06
2022-12-17T10:12:28.893Z,1020.08
2022-12-17T10:13:27.888Z,1020.04
2022-12-17T10:14:27.909Z,1020.13
2022-12-17T10:15:27.916Z,1020.07
2022-12-17T10:16:27.858Z,1020.17
2022-12-17T10:17:27.888Z,1020.11
2022-12-17T10:18:27.877Z,1020.11
2022-12-17T10:19:27.818Z,1020.14
2022-12-17T10:20:27.817Z,1020.14
2022-12-17T10:21:27.807Z,1020.13
2022-12-17T10:22:27.787Z,1020.12
2022-12-17T10:23:27.807Z,1020.15
2022-12-17T10:24:27.813Z,1020.10
2022-12-17T10:25:27.756Z,1020.15
2022-12-17T10:26:27.767Z,1020.16
2022-12-17T10:27:27.734Z,1020.12
2022-12-17T10:28:27.776Z,1020.11
2022-12-17T10:29:27.715Z,1020.05
2022-12-17T10:30:27.783Z,1020.07
2022-12-17T10:31:27.731Z,1020.05
2022-12-17T10:32:27.694Z,1020.00
2022-12-17T10:33:27.671Z,1019.99
2022-12-17T10:34:27.721Z,1019.96
2022-12-17T10:35:27.656Z,1019.99
2022-12-17T10:36:27.694Z,1020.02
2022-12-17T10:37:27.633Z,1019.99
2022-12-17T10:38:27.631Z,1019.98
2022-12-17T10:39:27.615Z,1020.02
2022-12-17T10:40:27.603Z,1020.05
2022-12-17T10:41:27.592Z,1020.06
2022-12-17T10:42:32.889Z,1020.08
2022-12-17T10:43:28.580Z,1020.10
2022-12-17T10:44:27.563Z,1020.09
2022-12-17T10:45:27.542Z,1020.07
2022-12-17T10:46:27.604Z,1020.10
2022-12-17T10:47:27.532Z,1020.15
2022-12-17T10:48:27.661Z,1020.17
2022-12-17T10:49:27.532Z,1020.12
2022-12-17T10:50:27.505Z,1020.15
2022-12-17T10:51:27.491Z,1020.15
2022-12-17T10:52:27.481Z,1020.16
2022-12-17T10:53:27.491Z,1020.16
2022-12-17T10:54:27.912Z,1020.13
2022-12-17T10:55:27.457Z,1020.18
2022-12-17T10:56:27.471Z,1020.20
2022-12-17T10:57:27.422Z,1020.21
2022-12-17T10:58:27.450Z,1020.19
2022-12-17T10:59:27.451Z,1020.21
2022-12-17T11:00:27.400Z,1020.28
2022-12-17T11:01:27.491Z,1020.23
2022-12-17T11:02:27.627Z,1020.30
2022-12-17T11:03:27.494Z,1020.22
2022-12-17T11:04:27.379Z,1020.32
2022-12-17T11:05:27.390Z,1020.30
2022-12-17T11:06:27.336Z,1020.31
2022-12-17T11:07:27.323Z,1020.26
2022-12-17T11:08:27.341Z,1020.30
2022-12-17T11:09:27.287Z,1020.33
2022-12-17T11:10:27.349Z,1020.33
2022-12-17T11:11:27.296Z,1020.30
2022-12-17T11:12:30.856Z,1020.33
2022-12-17T11:13:27.260Z,1020.37
2022-12-17T11:14:27.289Z,1020.35
2022-12-17T11:15:27.237Z,1020.32
2022-12-17T11:16:27.282Z,1020.32
2022-12-17T11:17:27.217Z,1020.26
2022-12-17T11:18:27.208Z,1020.29
2022-12-17T11:19:27.192Z,1020.32
2022-12-17T11:20:27.312Z,1020.28
2022-12-17T11:21:27.175Z,1020.32
2022-12-17T11:22:27.224Z,1020.27
2022-12-17T11:23:27.156Z,1020.26
2022-12-17T11:24:27.145Z,1020.25
2022-12-17T11:25:27.135Z,1020.18
2022-12-17T11:26:27.165Z,1020.24
2022-12-17T11:27:27.114Z,1020.25
2022-12-17T11:28:27.136Z,1020.32
2022-12-17T11:29:27.095Z,1020.32
2022-12-17T11:30:30.777Z,1020.29
2022-12-17T11:31:27.137Z,1020.31
2022-12-17T11:32:27.123Z,1020.31
2022-12-17T11:33:27.044Z,1020.27
2022-12-17T11:34:27.051Z,1020.33
2022-12-17T11:35:27.030Z,1020.30
2022-12-17T11:36:32.458Z,1020.25
2022-12-17T11:37:28.145Z,1020.31
2022-12-17T11:38:27.047Z,1020.30
2022-12-17T11:39:26.992Z,1020.33
2022-12-17T11:40:26.983Z,1020.29
2022-12-17T11:41:26.982Z,1020.30
2022-12-17T11:42:26.971Z,1020.28
2022-12-17T11:43:26.961Z,1020.21
2022-12-17T11:44:26.972Z,1020.22
2022-12-17T11:45:26.951Z,1020.23
2022-12-17T11:46:26.942Z,1020.21
2022-12-17T11:47:26.900Z,1020.18
2022-12-17T11:48:26.911Z,1020.12
2022-12-17T11:49:26.882Z,1020.15
2022-12-17T11:50:26.878Z,1020.17
2022-12-17T11:51:26.901Z,1020.18
2022-12-17T11:52:26.875Z,1020.21
2022-12-17T11:53:28.336Z,1020.20
2022-12-17T11:54:26.841Z,1020.24
2022-12-17T11:55:26.861Z,1020.26
2022-12-17T11:56:26.875Z,1020.24
2022-12-17T11:57:26.831Z,1020.24
2022-12-17T11:58:26.821Z,1020.26
2022-12-17T11:59:26.780Z,1020.33
2022-12-17T12:00:26.789Z,1020.35
2022-12-17T12:01:26.779Z,1020.36
2022-12-17T12:02:26.838Z,1020.30
2022-12-17T12:03:26.863Z,1020.31
2022-12-17T12:04:26.747Z,1020.31
2022-12-17T12:05:26.717Z,1020.34
2022-12-17T12:06:26.708Z,1020.31
2022-12-17T12:07:27.758Z,1020.31
2022-12-17T12:08:26.788Z,1020.31